sensor_id;sensor_type;location;lat;lon;timestamp;pressure;altitude;pressure_sealevel;temperature;humidity
72636;BME280;60679;48.888;15.544;2024-02-16T00:00:17;96503.25;;;5.44;95.42
72636;BME280;60679;48.888;15.544;2024-02-16T00:02:44;96504.47;;;5.41;95.70
72636;BME280;60679;48.888;15.544;2024-02-16T00:05:11;96499.09;;;5.41;95.24
72636;BME280;60679;48.888;15.544;2024-02-16T00:07:37;96503.63;;;5.41;95.40
72636;BME280;60679;48.888;15.544;2024-02-16T00:10:04;96509.63;;;5.43;95.60
72636;BME280;60679;48.888;15.544;2024-02-16T00:12:30;96507.13;;;5.41;95.51
72636;BME280;60679;48.888;15.544;2024-02-16T00:14:57;96500.47;;;5.37;95.42
72636;BME280;60679;48.888;15.544;2024-02-16T00:17:23;96502.16;;;5.38;95.35
72636;BME280;60679;48.888;15.544;2024-02-16T00:19:55;96492.81;;;5.34;95.66
72636;BME280;60679;48.888;15.544;2024-02-16T00:22:21;96493.50;;;5.36;95.48
72636;BME280;60679;48.888;15.544;2024-02-16T00:24:46;96496.16;;;5.36;95.45
72636;BME280;60679;48.888;15.544;2024-02-16T00:27:13;96494.84;;;5.32;95.65
72636;BME280;60679;48.888;15.544;2024-02-16T00:29:39;96487.00;;;5.31;95.38
72636;BME280;60679;48.888;15.544;2024-02-16T00:32:05;96480.84;;;5.30;95.49
72636;BME280;60679;48.888;15.544;2024-02-16T00:34:32;96481.63;;;5.31;95.58
72636;BME280;60679;48.888;15.544;2024-02-16T00:36:57;96487.19;;;5.29;95.59
72636;BME280;60679;48.888;15.544;2024-02-16T00:39:23;96486.34;;;5.29;95.37
72636;BME280;60679;48.888;15.544;2024-02-16T00:41:50;96481.22;;;5.27;95.58
72636;BME280;60679;48.888;15.544;2024-02-16T00:44:15;96479.53;;;5.26;95.50
72636;BME280;60679;48.888;15.544;2024-02-16T00:46:41;96474.38;;;5.24;95.60
72636;BME280;60679;48.888;15.544;2024-02-16T00:49:06;96484.25;;;5.24;95.63
72636;BME280;60679;48.888;15.544;2024-02-16T00:51:32;96488.56;;;5.25;95.50
72636;BME280;60679;48.888;15.544;2024-02-16T00:53:58;96485.63;;;5.20;95.58
72636;BME280;60679;48.888;15.544;2024-02-16T00:56:23;96489.34;;;5.19;95.52
72636;BME280;60679;48.888;15.544;2024-02-16T00:58:49;96484.78;;;5.19;95.43
72636;BME280;60679;48.888;15.544;2024-02-16T01:01:14;96481.94;;;5.21;95.57
72636;BME280;60679;48.888;15.544;2024-02-16T01:03:40;96480.84;;;5.15;95.56
72636;BME280;60679;48.888;15.544;2024-02-16T01:06:06;96482.69;;;5.15;95.62
72636;BME280;60679;48.888;15.544;2024-02-16T01:08:31;96468.00;;;5.11;95.66
72636;BME280;60679;48.888;15.544;2024-02-16T01:10:58;96470.03;;;5.09;95.72
72636;BME280;60679;48.888;15.544;2024-02-16T01:13:24;96477.22;;;5.08;95.41
72636;BME280;60679;48.888;15.544;2024-02-16T01:15:49;96467.34;;;5.09;95.74
72636;BME280;60679;48.888;15.544;2024-02-16T01:18:15;96470.66;;;5.11;95.73
72636;BME280;60679;48.888;15.544;2024-02-16T01:20:40;96475.09;;;5.04;95.60
72636;BME280;60679;48.888;15.544;2024-02-16T01:23:06;96464.59;;;5.02;95.58
72636;BME280;60679;48.888;15.544;2024-02-16T01:25:32;96465.25;;;5.04;95.60
72636;BME280;60679;48.888;15.544;2024-02-16T01:27:58;96474.28;;;5.03;95.55
72636;BME280;60679;48.888;15.544;2024-02-16T01:30:24;96464.31;;;4.97;95.57
72636;BME280;60679;48.888;15.544;2024-02-16T01:32:49;96461.63;;;4.97;95.48
72636;BME280;60679;48.888;15.544;2024-02-16T01:35:14;96458.13;;;4.97;95.61
72636;BME280;60679;48.888;15.544;2024-02-16T01:37:43;96462.84;;;4.95;95.57
72636;BME280;60679;48.888;15.544;2024-02-16T01:40:09;96460.72;;;4.90;95.58
72636;BME280;60679;48.888;15.544;2024-02-16T01:42:43;96465.88;;;4.92;95.66
72636;BME280;60679;48.888;15.544;2024-02-16T01:45:09;96459.69;;;4.91;95.58
72636;BME280;60679;48.888;15.544;2024-02-16T01:47:36;96453.16;;;4.94;95.55
72636;BME280;60679;48.888;15.544;2024-02-16T01:50:03;96458.31;;;4.95;95.60
72636;BME280;60679;48.888;15.544;2024-02-16T01:52:30;96453.16;;;4.94;95.64
72636;BME280;60679;48.888;15.544;2024-02-16T01:54:57;96447.16;;;4.92;95.73
72636;BME280;60679;48.888;15.544;2024-02-16T01:57:23;96446.13;;;4.93;95.65
72636;BME280;60679;48.888;15.544;2024-02-16T01:59:49;96451.28;;;4.94;95.79
72636;BME280;60679;48.888;15.544;2024-02-16T02:02:15;96441.78;;;4.92;95.50
72636;BME280;60679;48.888;15.544;2024-02-16T02:04:40;96441.16;;;4.90;95.51
72636;BME280;60679;48.888;15.544;2024-02-16T02:07:14;96434.97;;;4.89;95.80
72636;BME280;60679;48.888;15.544;2024-02-16T02:09:40;96436.00;;;4.88;95.53
72636;BME280;60679;48.888;15.544;2024-02-16T02:12:06;96429.16;;;4.86;95.45
72636;BME280;60679;48.888;15.544;2024-02-16T02:14:32;96438.22;;;4.85;95.51
72636;BME280;60679;48.888;15.544;2024-02-16T02:16:57;96432.38;;;4.81;95.67
72636;BME280;60679;48.888;15.544;2024-02-16T02:19:23;96431.56;;;4.81;95.58
72636;BME280;60679;48.888;15.544;2024-02-16T02:21:48;96425.56;;;4.79;95.70
72636;BME280;60679;48.888;15.544;2024-02-16T02:24:15;96428.41;;;4.77;95.62
72636;BME280;60679;48.888;15.544;2024-02-16T02:26:41;96423.06;;;4.77;95.49
72636;BME280;60679;48.888;15.544;2024-02-16T02:29:07;96425.09;;;4.75;95.39
72636;BME280;60679;48.888;15.544;2024-02-16T02:31:32;96421.16;;;4.71;95.58
72636;BME280;60679;48.888;15.544;2024-02-16T02:33:58;96417.81;;;4.69;95.69
72636;BME280;60679;48.888;15.544;2024-02-16T02:36:23;96425.00;;;4.68;95.58
72636;BME280;60679;48.888;15.544;2024-02-16T02:38:49;96420.19;;;4.64;95.53
72636;BME280;60679;48.888;15.544;2024-02-16T02:41:16;96419.72;;;4.60;95.57
72636;BME280;60679;48.888;15.544;2024-02-16T02:43:42;96411.06;;;4.58;95.62
72636;BME280;60679;48.888;15.544;2024-02-16T02:46:08;96415.66;;;4.50;95.65
72636;BME280;60679;48.888;15.544;2024-02-16T02:48:33;96418.53;;;4.48;95.63
72636;BME280;60679;48.888;15.544;2024-02-16T02:50:59;96423.22;;;4.46;95.65
72636;BME280;60679;48.888;15.544;2024-02-16T02:53:28;96425.53;;;4.49;95.57
72636;BME280;60679;48.888;15.544;2024-02-16T02:55:54;96414.38;;;4.46;95.63
72636;BME280;60679;48.888;15.544;2024-02-16T02:58:19;96418.91;;;4.45;95.82
72636;BME280;60679;48.888;15.544;2024-02-16T03:00:44;96418.22;;;4.43;95.68
72636;BME280;60679;48.888;15.544;2024-02-16T03:03:10;96411.41;;;4.41;95.61
72636;BME280;60679;48.888;15.544;2024-02-16T03:05:35;96409.75;;;4.40;95.59
72636;BME280;60679;48.888;15.544;2024-02-16T03:08:01;96413.91;;;4.42;95.69
72636;BME280;60679;48.888;15.544;2024-02-16T03:10:27;96414.75;;;4.43;95.69
72636;BME280;60679;48.888;15.544;2024-02-16T03:12:56;96423.78;;;4.42;95.69
72636;BME280;60679;48.888;15.544;2024-02-16T03:15:22;96415.63;;;4.35;95.61
72636;BME280;60679;48.888;15.544;2024-02-16T03:17:47;96411.13;;;4.36;95.60
72636;BME280;60679;48.888;15.544;2024-02-16T03:20:13;96411.50;;;4.33;95.69
72636;BME280;60679;48.888;15.544;2024-02-16T03:22:38;96415.56;;;4.29;95.58
72636;BME280;60679;48.888;15.544;2024-02-16T03:25:04;96412.22;;;4.27;95.72
72636;BME280;60679;48.888;15.544;2024-02-16T03:27:30;96411.75;;;4.23;95.56
72636;BME280;60679;48.888;15.544;2024-02-16T03:29:55;96414.78;;;4.20;95.39
72636;BME280;60679;48.888;15.544;2024-02-16T03:32:21;96409.13;;;4.15;95.52
72636;BME280;60679;48.888;15.544;2024-02-16T03:34:46;96413.00;;;4.13;95.45
72636;BME280;60679;48.888;15.544;2024-02-16T03:37:12;96412.56;;;4.09;95.57
72636;BME280;60679;48.888;15.544;2024-02-16T03:39:37;96415.75;;;4.04;95.60
72636;BME280;60679;48.888;15.544;2024-02-16T03:42:03;96421.09;;;4.04;95.57
72636;BME280;60679;48.888;15.544;2024-02-16T03:44:29;96426.63;;;4.03;95.77
72636;BME280;60679;48.888;15.544;2024-02-16T03:46:54;96429.31;;;4.03;95.65
72636;BME280;60679;48.888;15.544;2024-02-16T03:49:19;96422.28;;;4.02;95.63
72636;BME280;60679;48.888;15.544;2024-02-16T03:51:45;96416.94;;;4.02;95.55
72636;BME280;60679;48.888;15.544;2024-02-16T03:54:11;96419.13;;;3.98;95.70
72636;BME280;60679;48.888;15.544;2024-02-16T03:56:36;96416.19;;;3.93;95.72
72636;BME280;60679;48.888;15.544;2024-02-16T03:59:02;96411.38;;;3.89;95.60
72636;BME280;60679;48.888;15.544;2024-02-16T04:01:29;96420.03;;;3.91;95.45
72636;BME280;60679;48.888;15.544;2024-02-16T04:03:55;96414.06;;;3.89;95.52
72636;BME280;60679;48.888;15.544;2024-02-16T04:06:21;96422.22;;;3.87;95.58
72636;BME280;60679;48.888;15.544;2024-02-16T04:08:46;96423.41;;;3.85;95.48
72636;BME280;60679;48.888;15.544;2024-02-16T04:11:14;96427.13;;;3.84;95.47
72636;BME280;60679;48.888;15.544;2024-02-16T04:13:40;96425.44;;;3.83;95.66
72636;BME280;60679;48.888;15.544;2024-02-16T04:16:06;96423.78;;;3.82;95.54
72636;BME280;60679;48.888;15.544;2024-02-16T04:18:32;96425.97;;;3.78;95.54
72636;BME280;60679;48.888;15.544;2024-02-16T04:20:57;96431.13;;;3.80;95.59
72636;BME280;60679;48.888;15.544;2024-02-16T04:23:23;96430.50;;;3.78;95.65
72636;BME280;60679;48.888;15.544;2024-02-16T04:25:48;96429.81;;;3.76;95.66
72636;BME280;60679;48.888;15.544;2024-02-16T04:28:14;96427.00;;;3.77;95.67
72636;BME280;60679;48.888;15.544;2024-02-16T04:30:39;96428.19;;;3.75;95.59
72636;BME280;60679;48.888;15.544;2024-02-16T04:33:05;96428.34;;;3.73;95.53
72636;BME280;60679;48.888;15.544;2024-02-16T04:35:30;96424.19;;;3.71;95.63
72636;BME280;60679;48.888;15.544;2024-02-16T04:37:56;96424.53;;;3.68;95.61
72636;BME280;60679;48.888;15.544;2024-02-16T04:40:22;96425.72;;;3.65;95.69
72636;BME280;60679;48.888;15.544;2024-02-16T04:42:47;96426.91;;;3.63;95.53
72636;BME280;60679;48.888;15.544;2024-02-16T04:45:13;96425.44;;;3.60;95.73
72636;BME280;60679;48.888;15.544;2024-02-16T04:47:39;96427.91;;;3.62;95.67
72636;BME280;60679;48.888;15.544;2024-02-16T04:50:08;96435.75;;;3.63;95.60
72636;BME280;60679;48.888;15.544;2024-02-16T04:52:37;96434.09;;;3.62;95.82
72636;BME280;60679;48.888;15.544;2024-02-16T04:55:07;96429.94;;;3.60;95.48
72636;BME280;60679;48.888;15.544;2024-02-16T04:57:34;96430.13;;;3.58;95.62
72636;BME280;60679;48.888;15.544;2024-02-16T05:00:00;96429.81;;;3.53;95.68
72636;BME280;60679;48.888;15.544;2024-02-16T05:02:25;96426.78;;;3.56;95.80
72636;BME280;60679;48.888;15.544;2024-02-16T05:04:51;96422.91;;;3.59;95.70
72636;BME280;60679;48.888;15.544;2024-02-16T05:07:16;96431.31;;;3.56;95.85
72636;BME280;60679;48.888;15.544;2024-02-16T05:09:42;96428.44;;;3.57;95.67
72636;BME280;60679;48.888;15.544;2024-02-16T05:12:08;96424.09;;;3.56;95.72
72636;BME280;60679;48.888;15.544;2024-02-16T05:14:35;96415.28;;;3.56;95.71
72636;BME280;60679;48.888;15.544;2024-02-16T05:17:00;96418.97;;;3.55;95.57
72636;BME280;60679;48.888;15.544;2024-02-16T05:19:26;96417.63;;;3.50;95.69
72636;BME280;60679;48.888;15.544;2024-02-16T05:21:51;96414.97;;;3.50;95.74
72636;BME280;60679;48.888;15.544;2024-02-16T05:24:17;96427.31;;;3.52;95.56
72636;BME280;60679;48.888;15.544;2024-02-16T05:26:42;96420.50;;;3.49;95.59
72636;BME280;60679;48.888;15.544;2024-02-16T05:29:09;96429.69;;;3.46;95.67
72636;BME280;60679;48.888;15.544;2024-02-16T05:31:34;96419.19;;;3.45;95.78
72636;BME280;60679;48.888;15.544;2024-02-16T05:34:00;96418.88;;;3.40;95.62
72636;BME280;60679;48.888;15.544;2024-02-16T05:36:25;96409.19;;;3.39;95.75
72636;BME280;60679;48.888;15.544;2024-02-16T05:38:53;96416.56;;;3.37;95.65
72636;BME280;60679;48.888;15.544;2024-02-16T05:41:21;96410.56;;;3.35;95.61
72636;BME280;60679;48.888;15.544;2024-02-16T05:43:46;96412.22;;;3.36;95.54
72636;BME280;60679;48.888;15.544;2024-02-16T05:46:14;96415.91;;;3.35;95.59
72636;BME280;60679;48.888;15.544;2024-02-16T05:48:41;96411.28;;;3.29;95.60
72636;BME280;60679;48.888;15.544;2024-02-16T05:51:06;96418.44;;;3.28;95.78
72636;BME280;60679;48.888;15.544;2024-02-16T05:53:32;96413.63;;;3.24;95.89
72636;BME280;60679;48.888;15.544;2024-02-16T05:55:59;96417.59;;;3.28;95.66
72636;BME280;60679;48.888;15.544;2024-02-16T05:58:25;96406.34;;;3.18;95.61
72636;BME280;60679;48.888;15.544;2024-02-16T06:00:51;96414.88;;;3.13;95.67
72636;BME280;60679;48.888;15.544;2024-02-16T06:03:16;96415.56;;;3.07;95.64
72636;BME280;60679;48.888;15.544;2024-02-16T06:05:42;96419.72;;;3.10;95.71
72636;BME280;60679;48.888;15.544;2024-02-16T06:08:11;96418.88;;;3.09;95.65
72636;BME280;60679;48.888;15.544;2024-02-16T06:10:37;96427.53;;;3.11;95.58
72636;BME280;60679;48.888;15.544;2024-02-16T06:13:03;96424.03;;;3.11;95.83
72636;BME280;60679;48.888;15.544;2024-02-16T06:15:28;96427.88;;;3.08;95.59
72636;BME280;60679;48.888;15.544;2024-02-16T06:17:54;96435.38;;;3.13;95.70
72636;BME280;60679;48.888;15.544;2024-02-16T06:20:19;96433.03;;;3.10;95.70
72636;BME280;60679;48.888;15.544;2024-02-16T06:22:45;96438.06;;;3.05;95.37
72636;BME280;60679;48.888;15.544;2024-02-16T06:25:10;96428.56;;;3.02;95.33
72636;BME280;60679;48.888;15.544;2024-02-16T06:27:36;96431.91;;;3.04;95.33
72636;BME280;60679;48.888;15.544;2024-02-16T06:30:05;96436.72;;;3.09;95.13
72636;BME280;60679;48.888;15.544;2024-02-16T06:32:32;96440.00;;;3.19;95.06
72636;BME280;60679;48.888;15.544;2024-02-16T06:34:58;96446.00;;;3.21;95.31
72636;BME280;60679;48.888;15.544;2024-02-16T06:37:23;96441.16;;;3.16;94.90
72636;BME280;60679;48.888;15.544;2024-02-16T06:39:49;96445.50;;;3.17;94.49
72636;BME280;60679;48.888;15.544;2024-02-16T06:42:14;96448.94;;;3.34;94.67
72636;BME280;60679;48.888;15.544;2024-02-16T06:44:40;96452.81;;;3.54;94.15
72636;BME280;60679;48.888;15.544;2024-02-16T06:47:06;96461.44;;;3.87;93.73
72636;BME280;60679;48.888;15.544;2024-02-16T06:49:32;96464.59;;;4.13;93.28
72636;BME280;60679;48.888;15.544;2024-02-16T06:51:57;96456.94;;;4.33;92.32
72636;BME280;60679;48.888;15.544;2024-02-16T06:54:23;96452.31;;;4.79;91.33
72636;BME280;60679;48.888;15.544;2024-02-16T06:56:51;96451.28;;;5.38;89.91
72636;BME280;60679;48.888;15.544;2024-02-16T06:59:20;96463.84;;;5.88;88.72
72636;BME280;60679;48.888;15.544;2024-02-16T07:01:45;96446.00;;;6.65;86.45
72636;BME280;60679;48.888;15.544;2024-02-16T07:04:11;96451.88;;;7.10;85.13
72636;BME280;60679;48.888;15.544;2024-02-16T07:06:36;96451.13;;;6.88;85.05
72636;BME280;60679;48.888;15.544;2024-02-16T07:09:02;96452.28;;;6.79;85.36
72636;BME280;60679;48.888;15.544;2024-02-16T07:11:28;96455.56;;;7.02;84.85
72636;BME280;60679;48.888;15.544;2024-02-16T07:13:54;96456.84;;;7.13;84.35
72636;BME280;60679;48.888;15.544;2024-02-16T07:16:20;96449.13;;;7.31;83.86
72636;BME280;60679;48.888;15.544;2024-02-16T07:18:45;96450.09;;;7.64;82.86
72636;BME280;60679;48.888;15.544;2024-02-16T07:21:11;96458.63;;;7.81;82.94
72636;BME280;60679;48.888;15.544;2024-02-16T07:23:37;96462.66;;;8.24;81.95
72636;BME280;60679;48.888;15.544;2024-02-16T07:26:03;96464.41;;;7.78;82.71
72636;BME280;60679;48.888;15.544;2024-02-16T07:28:29;96460.63;;;7.66;83.30
72636;BME280;60679;48.888;15.544;2024-02-16T07:30:54;96462.72;;;7.77;83.24
72636;BME280;60679;48.888;15.544;2024-02-16T07:33:20;96459.31;;;7.08;84.59
72636;BME280;60679;48.888;15.544;2024-02-16T07:35:47;96457.91;;;6.56;85.99
72636;BME280;60679;48.888;15.544;2024-02-16T07:38:12;96461.97;;;6.52;86.05
72636;BME280;60679;48.888;15.544;2024-02-16T07:40:38;96460.94;;;6.25;86.63
72636;BME280;60679;48.888;15.544;2024-02-16T07:43:03;96459.13;;;6.32;86.95
72636;BME280;60679;48.888;15.544;2024-02-16T07:45:30;96455.53;;;6.47;86.43
72636;BME280;60679;48.888;15.544;2024-02-16T07:47:57;96459.13;;;6.54;86.53
72636;BME280;60679;48.888;15.544;2024-02-16T07:50:23;96451.59;;;6.70;86.68
72636;BME280;60679;48.888;15.544;2024-02-16T07:52:50;96465.72;;;6.51;86.90
72636;BME280;60679;48.888;15.544;2024-02-16T07:55:16;96473.19;;;6.34;87.85
72636;BME280;60679;48.888;15.544;2024-02-16T07:57:45;96471.28;;;6.28;88.02
72636;BME280;60679;48.888;15.544;2024-02-16T08:00:12;96469.28;;;6.16;88.38
72636;BME280;60679;48.888;15.544;2024-02-16T08:02:38;96476.91;;;6.12;88.86
72636;BME280;60679;48.888;15.544;2024-02-16T08:05:10;96471.91;;;6.09;88.61
72636;BME280;60679;48.888;15.544;2024-02-16T08:07:35;96469.63;;;6.06;89.03
72636;BME280;60679;48.888;15.544;2024-02-16T08:10:01;96472.00;;;6.01;89.01
72636;BME280;60679;48.888;15.544;2024-02-16T08:12:26;96466.59;;;5.95;89.33
72636;BME280;60679;48.888;15.544;2024-02-16T08:14:53;96476.22;;;5.89;89.52
72636;BME280;60679;48.888;15.544;2024-02-16T08:17:19;96476.88;;;5.91;89.81
72636;BME280;60679;48.888;15.544;2024-02-16T08:19:51;96471.75;;;5.81;90.27
72636;BME280;60679;48.888;15.544;2024-02-16T08:22:18;96479.38;;;5.78;90.26
72636;BME280;60679;48.888;15.544;2024-02-16T08:24:43;96475.19;;;5.90;90.31
72636;BME280;60679;48.888;15.544;2024-02-16T08:27:11;96477.31;;;5.95;90.37
72636;BME280;60679;48.888;15.544;2024-02-16T08:29:38;96478.88;;;6.04;90.38
72636;BME280;60679;48.888;15.544;2024-02-16T08:32:04;96478.50;;;6.07;90.16
72636;BME280;60679;48.888;15.544;2024-02-16T08:34:31;96471.78;;;6.17;89.91
72636;BME280;60679;48.888;15.544;2024-02-16T08:36:57;96477.59;;;6.21;89.92
72636;BME280;60679;48.888;15.544;2024-02-16T08:39:23;96470.94;;;6.17;90.27
72636;BME280;60679;48.888;15.544;2024-02-16T08:41:53;96473.00;;;6.15;90.06
72636;BME280;60679;48.888;15.544;2024-02-16T08:44:24;96477.06;;;6.11;90.13
72636;BME280;60679;48.888;15.544;2024-02-16T08:46:52;96476.50;;;6.15;90.32
72636;BME280;60679;48.888;15.544;2024-02-16T08:49:18;96479.63;;;6.19;90.17
72636;BME280;60679;48.888;15.544;2024-02-16T08:51:44;96480.56;;;6.32;90.60
72636;BME280;60679;48.888;15.544;2024-02-16T08:54:11;96476.88;;;6.33;90.03
72636;BME280;60679;48.888;15.544;2024-02-16T08:56:39;96478.41;;;6.43;89.90
72636;BME280;60679;48.888;15.544;2024-02-16T08:59:09;96476.19;;;6.46;89.79
72636;BME280;60679;48.888;15.544;2024-02-16T09:01:38;96478.34;;;6.57;89.56
72636;BME280;60679;48.888;15.544;2024-02-16T09:04:04;96484.03;;;6.69;89.42
72636;BME280;60679;48.888;15.544;2024-02-16T09:06:30;96486.03;;;6.88;89.22
72636;BME280;60679;48.888;15.544;2024-02-16T09:08:57;96487.38;;;7.05;88.64
72636;BME280;60679;48.888;15.544;2024-02-16T09:11:23;96485.25;;;7.01;88.29
72636;BME280;60679;48.888;15.544;2024-02-16T09:13:49;96488.06;;;7.14;88.59
72636;BME280;60679;48.888;15.544;2024-02-16T09:16:15;96487.13;;;7.34;88.37
72636;BME280;60679;48.888;15.544;2024-02-16T09:18:40;96488.88;;;7.48;87.96
72636;BME280;60679;48.888;15.544;2024-02-16T09:21:06;96490.91;;;7.87;87.08
72636;BME280;60679;48.888;15.544;2024-02-16T09:23:33;96490.56;;;8.03;86.88
72636;BME280;60679;48.888;15.544;2024-02-16T09:25:59;96487.47;;;8.13;86.22
72636;BME280;60679;48.888;15.544;2024-02-16T09:28:27;96500.75;;;8.21;86.12
72636;BME280;60679;48.888;15.544;2024-02-16T09:30:54;96491.50;;;8.50;86.08
72636;BME280;60679;48.888;15.544;2024-02-16T09:33:20;96489.69;;;8.83;84.39
72636;BME280;60679;48.888;15.544;2024-02-16T09:35:50;96481.56;;;9.16;83.97
72636;BME280;60679;48.888;15.544;2024-02-16T09:38:15;96486.06;;;9.42;83.10
72636;BME280;60679;48.888;15.544;2024-02-16T09:40:42;96484.44;;;9.92;82.50
72636;BME280;60679;48.888;15.544;2024-02-16T09:43:07;96479.88;;;9.99;82.22
72636;BME280;60679;48.888;15.544;2024-02-16T09:45:33;96482.06;;;10.21;81.68
72636;BME280;60679;48.888;15.544;2024-02-16T09:47:59;96482.63;;;10.61;79.74
72636;BME280;60679;48.888;15.544;2024-02-16T09:50:25;96492.81;;;10.59;79.86
72636;BME280;60679;48.888;15.544;2024-02-16T09:52:52;96491.09;;;10.71;80.13
72636;BME280;60679;48.888;15.544;2024-02-16T09:55:17;96496.34;;;10.91;80.02
72636;BME280;60679;48.888;15.544;2024-02-16T09:57:43;96499.25;;;10.89;79.94
72636;BME280;60679;48.888;15.544;2024-02-16T10:00:10;96509.28;;;10.82;80.52
72636;BME280;60679;48.888;15.544;2024-02-16T10:02:44;96507.41;;;11.32;80.07
72636;BME280;60679;48.888;15.544;2024-02-16T10:05:18;96514.03;;;11.36;79.36
72636;BME280;60679;48.888;15.544;2024-02-16T10:07:45;96514.56;;;11.45;79.31
72636;BME280;60679;48.888;15.544;2024-02-16T10:10:26;96511.81;;;12.24;77.13
72636;BME280;60679;48.888;15.544;2024-02-16T10:13:06;96510.19;;;12.94;76.16
72636;BME280;60679;48.888;15.544;2024-02-16T10:15:34;96513.13;;;12.93;75.25
72636;BME280;60679;48.888;15.544;2024-02-16T10:18:01;96503.28;;;14.03;73.37
72636;BME280;60679;48.888;15.544;2024-02-16T10:20:27;96498.88;;;14.81;71.60
72636;BME280;60679;48.888;15.544;2024-02-16T10:23:06;96498.22;;;14.91;70.30
72636;BME280;60679;48.888;15.544;2024-02-16T10:25:39;96506.88;;;14.60;71.27
72636;BME280;60679;48.888;15.544;2024-02-16T10:28:08;96500.78;;;14.81;71.64
72636;BME280;60679;48.888;15.544;2024-02-16T10:30:41;96498.19;;;15.69;69.09
72636;BME280;60679;48.888;15.544;2024-02-16T10:33:11;96499.66;;;16.58;65.74
72636;BME280;60679;48.888;15.544;2024-02-16T10:35:38;96500.34;;;16.27;67.09
72636;BME280;60679;48.888;15.544;2024-02-16T10:38:07;96497.41;;;17.04;65.81
72636;BME280;60679;48.888;15.544;2024-02-16T10:40:42;96494.47;;;16.84;65.31
72636;BME280;60679;48.888;15.544;2024-02-16T10:43:09;96482.78;;;16.88;65.53
72636;BME280;60679;48.888;15.544;2024-02-16T10:45:36;96490.22;;;16.23;68.15
72636;BME280;60679;48.888;15.544;2024-02-16T10:48:03;96489.03;;;16.40;67.97
72636;BME280;60679;48.888;15.544;2024-02-16T10:50:31;96485.81;;;16.43;67.86
72636;BME280;60679;48.888;15.544;2024-02-16T10:53:00;96472.38;;;15.93;68.25
72636;BME280;60679;48.888;15.544;2024-02-16T10:55:28;96473.72;;;16.12;67.79
72636;BME280;60679;48.888;15.544;2024-02-16T10:57:56;96480.88;;;16.62;67.36
72636;BME280;60679;48.888;15.544;2024-02-16T11:00:22;96474.69;;;17.62;65.30
72636;BME280;60679;48.888;15.544;2024-02-16T11:02:52;96477.16;;;18.67;62.91
72636;BME280;60679;48.888;15.544;2024-02-16T11:05:19;96474.19;;;18.79;62.09
72636;BME280;60679;48.888;15.544;2024-02-16T11:07:44;96470.03;;;18.09;63.19
72636;BME280;60679;48.888;15.544;2024-02-16T11:10:12;96466.94;;;18.42;63.35
72636;BME280;60679;48.888;15.544;2024-02-16T11:12:43;96468.16;;;19.93;61.55
72636;BME280;60679;48.888;15.544;2024-02-16T11:15:11;96470.66;;;19.79;60.80
72636;BME280;60679;48.888;15.544;2024-02-16T11:17:38;96469.78;;;18.11;63.66
72636;BME280;60679;48.888;15.544;2024-02-16T11:20:06;96472.59;;;17.42;65.59
72636;BME280;60679;48.888;15.544;2024-02-16T11:22:36;96472.28;;;18.89;63.01
72636;BME280;60679;48.888;15.544;2024-02-16T11:25:05;96479.69;;;19.14;61.92
72636;BME280;60679;48.888;15.544;2024-02-16T11:27:31;96489.06;;;18.46;64.70
72636;BME280;60679;48.888;15.544;2024-02-16T11:29:58;96484.53;;;18.10;65.13
72636;BME280;60679;48.888;15.544;2024-02-16T11:32:25;96481.34;;;17.76;67.22
72636;BME280;60679;48.888;15.544;2024-02-16T11:34:50;96472.81;;;17.67;66.64
72636;BME280;60679;48.888;15.544;2024-02-16T11:37:16;96468.84;;;18.47;65.01
72636;BME280;60679;48.888;15.544;2024-02-16T11:39:42;96465.06;;;20.30;61.22
72636;BME280;60679;48.888;15.544;2024-02-16T11:42:11;96458.28;;;21.20;59.67
72636;BME280;60679;48.888;15.544;2024-02-16T11:44:39;96457.78;;;21.13;60.15
72636;BME280;60679;48.888;15.544;2024-02-16T11:47:06;96450.09;;;22.06;58.75
72636;BME280;60679;48.888;15.544;2024-02-16T11:49:36;96450.66;;;24.27;54.76
72636;BME280;60679;48.888;15.544;2024-02-16T11:52:04;96451.03;;;24.75;54.68
72636;BME280;60679;48.888;15.544;2024-02-16T11:54:29;96455.06;;;25.54;52.36
72636;BME280;60679;48.888;15.544;2024-02-16T11:56:57;96437.66;;;24.55;53.49
72636;BME280;60679;48.888;15.544;2024-02-16T11:59:23;96438.75;;;23.67;55.82
72636;BME280;60679;48.888;15.544;2024-02-16T12:01:58;96436.50;;;23.37;56.04
72636;BME280;60679;48.888;15.544;2024-02-16T12:04:26;96440.09;;;22.81;56.75
72636;BME280;60679;48.888;15.544;2024-02-16T12:09:21;96429.91;;;23.84;54.38
72636;BME280;60679;48.888;15.544;2024-02-16T12:11:48;96433.34;;;24.62;55.28
72636;BME280;60679;48.888;15.544;2024-02-16T12:14:18;96435.41;;;25.42;54.24
72636;BME280;60679;48.888;15.544;2024-02-16T12:16:57;96438.47;;;25.41;53.84
72636;BME280;60679;48.888;15.544;2024-02-16T12:19:23;96444.47;;;25.56;53.89
72636;BME280;60679;48.888;15.544;2024-02-16T12:21:54;96431.41;;;25.12;53.80
72636;BME280;60679;48.888;15.544;2024-02-16T12:24:20;96434.94;;;24.91;54.42
72636;BME280;60679;48.888;15.544;2024-02-16T12:26:46;96428.31;;;24.51;55.47
72636;BME280;60679;48.888;15.544;2024-02-16T12:29:12;96429.84;;;24.70;55.22
72636;BME280;60679;48.888;15.544;2024-02-16T12:31:44;96427.63;;;25.08;55.21
72636;BME280;60679;48.888;15.544;2024-02-16T12:34:10;96433.50;;;24.93;53.99
72636;BME280;60679;48.888;15.544;2024-02-16T12:36:38;96431.88;;;25.28;55.96
72636;BME280;60679;48.888;15.544;2024-02-16T12:39:05;96423.66;;;25.59;54.90
72636;BME280;60679;48.888;15.544;2024-02-16T12:41:32;96428.00;;;25.51;53.86
72636;BME280;60679;48.888;15.544;2024-02-16T12:43:57;96426.56;;;25.54;54.97
72636;BME280;60679;48.888;15.544;2024-02-16T12:46:23;96423.44;;;25.77;55.40
72636;BME280;60679;48.888;15.544;2024-02-16T12:48:50;96418.59;;;25.83;53.97
72636;BME280;60679;48.888;15.544;2024-02-16T12:51:15;96418.44;;;25.79;54.78
72636;BME280;60679;48.888;15.544;2024-02-16T12:53:41;96411.66;;;26.16;55.28
72636;BME280;60679;48.888;15.544;2024-02-16T12:56:08;96407.84;;;26.52;54.31